Flight Track Log - Related Links

Times and Time Zones

All times are in EDT time to prevent confusion due to time zone crossing. See the AAY843 flight status page for this flight to view local times or setup timezone preferences in your user account.

Time Position Orientation Groundspeed Altitude Reporting Facility
EDT Latitude Longitude Course Direction KTS MPH feet Rate Location/Type
Fri 06:27:31 PM 43.1069 -76.1361 272° West 168 193 1,400  Level Boston Center
Fri 06:27:43 PM 43.1072 -76.1478 272° West 170 196 1,800 1,562 Climbing Boston Center
Fri 06:28:44 PM 43.0675 -76.2053 227° Southwest 234 269 3,300 1,642 Climbing Boston Center
Fri 06:29:18 PM 43.0433 -76.2269 213° Southwest 223 257 4,400 2,716 Climbing Boston Center
Fri 06:30:19 PM 42.9808 -76.2786 211° Southwest 260 299 7,600 2,878 Climbing Boston Center
Fri 06:31:21 PM 42.9053 -76.3442 212° Southwest 267 307 10,300 2,032 Climbing Boston Center
Fri 06:32:23 PM 42.8419 -76.3997 213° Southwest 273 314 11,800 1,902 Climbing Boston Center
Fri 06:33:24 PM 42.7728 -76.4558 211° Southwest 313 360 14,200 2,390 Climbing Boston Center
Fri 06:34:26 PM 42.6997 -76.5175 212° Southwest 312 359 16,700 2,146 Climbing Boston Center
Fri 06:35:27 PM 42.6069 -76.5958 212° Southwest 326 375 18,600 2,049 Climbing Boston Center
Fri 06:36:29 PM 42.5275 -76.6631 212° Southwest 331 381 20,900 2,032 Climbing Boston Center
Fri 06:37:31 PM 42.4494 -76.7286 212° Southwest 331 381 22,800 1,024 Climbing Boston Center
Fri 06:38:32 PM 42.3686 -76.7969 212° Southwest 336 387 23,000 98 Climbing Boston Center
Fri 06:39:34 PM 42.2869 -76.8647 212° Southwest 340 391 23,000 484 Level Boston Center
Fri 06:40:36 PM 42.2028 -76.9283 209° Southwest 344 396 24,000 1,366 Climbing Boston Center
Fri 06:41:37 PM 42.1053 -76.9692 197° South 362 417 25,800 1,632 Climbing Boston Center
Fri 06:42:41 PM 41.9797 -76.9786 183° South 372 428 27,400 1,306 Climbing New York Center
Fri 06:43:41 PM 41.8667 -76.9511 170° South 388 447 28,500 1,000 Climbing New York Center
Fri 06:44:41 PM 41.7519 -76.9128 166° South 412 474 29,400 1,200 Climbing New York Center
Fri 06:45:41 PM 41.6375 -76.8744 166° South 424 488 30,900 1,400 Climbing New York Center
Fri 06:46:41 PM 41.5228 -76.8364 166° South 430 495 32,200 1,100 Climbing New York Center
Fri 06:47:41 PM 41.4178 -76.8103 169° South 430 495 33,100 1,050 Climbing New York Center
Fri 06:48:41 PM 41.3139 -76.8478 195° South 399 459 34,300 1,100 Climbing New York Center
Fri 06:49:41 PM 41.2158 -76.8889 198° South 383 441 35,300 850 Climbing New York Center
Fri 06:50:41 PM 41.1136 -76.9319 198° South 383 441 36,000 350 Climbing New York Center
Fri 06:51:41 PM 41.0114 -76.9747 198° South 388 447 36,000  Level New York Center
Fri 06:52:41 PM 40.9114 -77.0153 197° South 388 447 36,000 50 Level New York Center
Fri 06:53:41 PM 40.8089 -77.0581 198° South 388 447 36,100  Climbing New York Center
Fri 06:54:41 PM 40.7069 -77.0978 196° South 388 447 36,000 -50 Descending New York Center
Fri 06:55:41 PM 40.6044 -77.1403 197° South 388 447 36,000  Level New York Center
Fri 06:56:41 PM 40.5042 -77.1831 198° South 393 452 36,000  Level New York Center
Fri 06:58:47 PM 40.2769 -77.2717 197° South 404 465 36,000  Level Washington Center
Fri 06:59:48 PM 40.1744 -77.3128 197° South 399 459 36,000  Level Washington Center
Fri 07:00:49 PM 40.0717 -77.3536 197° South 394 453 36,000  Level Washington Center
Fri 07:01:47 PM 39.9689 -77.3972 198° South 394 453 36,000  Level Washington Center
Fri 07:02:47 PM 39.8661 -77.4378 197° South 394 453 36,000  Level Washington Center
Fri 07:03:48 PM 39.7614 -77.4756 196° South 389 448 36,000  Level Washington Center
Fri 07:04:48 PM 39.6608 -77.5189 198° South 389 448 36,000  Level Washington Center
Fri 07:05:49 PM 39.5558 -77.5592 196° South 384 442 36,000  Level Washington Center
Fri 07:06:49 PM 39.4511 -77.6019 198° South 384 442 36,000  Level Washington Center
Fri 07:07:47 PM 39.3483 -77.6419 197° South 384 442 36,000  Level Washington Center
Fri 07:08:48 PM 39.2475 -77.6819 197° South 384 442 36,000  Level Washington Center
Fri 07:09:48 PM 39.1447 -77.7219 197° South 384 442 36,000  Level Washington Center
Fri 07:10:49 PM 39.0419 -77.7617 197° South 384 442 36,000 50 Level Washington Center
Fri 07:11:49 PM 38.9494 -77.7964 196° South 384 442 36,100  Climbing Washington Center
Fri 07:12:47 PM 38.8383 -77.8383 196° South 384 442 36,000 -51 Descending Washington Center
Fri 07:13:47 PM 38.7458 -77.8753 197° South 384 442 36,000  Level Washington Center
Fri 07:14:48 PM 38.6550 -77.9417 210° Southwest 384 442 36,000  Level Washington Center
Fri 07:15:48 PM 38.5703 -78.0081 211° Southwest 372 428 36,000  Level Washington Center
Fri 07:16:49 PM 38.4853 -78.0769 212° Southwest 372 428 36,000  Level Washington Center
Fri 07:17:47 PM 38.3983 -78.1483 213° Southwest 372 428 36,000  Level Washington Center
Fri 07:18:47 PM 38.3114 -78.2194 213° Southwest 378 435 36,000 49 Level Washington Center
Fri 07:19:49 PM 38.2222 -78.2903 212° Southwest 378 435 36,100  Climbing Washington Center
Fri 07:20:49 PM 38.1350 -78.3611 213° Southwest 378 435 36,000 -51 Descending Washington Center
Fri 07:21:47 PM 38.0478 -78.4317 213° Southwest 378 435 36,000  Level Washington Center
Fri 07:22:48 PM 37.9522 -78.5069 212° Southwest 378 435 36,000  Level Washington Center
Fri 07:23:48 PM 37.8672 -78.5747 212° Southwest 378 435 36,000  Level Washington Center
Fri 07:24:48 PM 37.7778 -78.6475 213° Southwest 378 435 36,000  Level Washington Center
Fri 07:25:49 PM 37.6883 -78.7172 212° Southwest 378 435 36,000  Level Washington Center
Fri 07:26:47 PM 37.6011 -78.7844 211° Southwest 378 435 36,000  Level Washington Center
Fri 07:27:48 PM 37.5200 -78.8492 212° Southwest 378 435 36,000  Level Washington Center
Fri 07:28:49 PM 37.4306 -78.9186 212° Southwest 378 435 36,000  Level Washington Center
Fri 07:29:49 PM 37.3408 -78.9878 212° Southwest 378 435 36,000  Level Washington Center
Fri 07:30:47 PM 37.2514 -79.0569 212° Southwest 378 435 36,000  Level Washington Center
Fri 07:31:47 PM 37.1511 -79.1331 211° Southwest 383 441 36,000  Level Washington Center
Fri 07:32:48 PM 37.0614 -79.2019 212° Southwest 383 441 36,000  Level Washington Center
Fri 07:33:48 PM 36.9717 -79.2706 211° Southwest 383 441 36,000  Level Washington Center
Fri 07:34:48 PM 36.8839 -79.3392 212° Southwest 383 441 36,000  Level Washington Center
Fri 07:35:49 PM 36.7919 -79.4097 212° Southwest 383 441 36,000  Level Washington Center
Fri 07:36:47 PM 36.7128 -79.4706 212° Southwest 383 441 36,000  Level Washington Center
Fri 07:38:20 PM 36.5714 -79.5744 211° Southwest 371 427 36,000  Level Atlanta Center
Fri 07:39:20 PM 36.4844 -79.6439 213° Southwest 371 427 36,000  Level Atlanta Center
Fri 07:40:20 PM 36.3908 -79.7136 211° Southwest 377 434 36,000  Level Atlanta Center
Fri 07:41:20 PM 36.3014 -79.7803 211° Southwest 377 434 36,000  Level Atlanta Center
Fri 07:42:20 PM 36.2039 -79.8547 212° Southwest 377 434 36,000  Level Atlanta Center
Fri 07:43:20 PM 36.1103 -79.9239 211° Southwest 377 434 36,000  Level Atlanta Center
Fri 07:44:20 PM 36.0206 -79.9850 209° Southwest 377 434 36,000  Level Atlanta Center
Fri 07:45:20 PM 35.9200 -80.0361 202° Southwest 377 434 36,000  Level Atlanta Center
Fri 07:46:20 PM 35.8319 -80.0839 204° Southwest 382 440 36,000  Level Atlanta Center
Fri 07:47:20 PM 35.7333 -80.1322 202° Southwest 388 447 36,000  Level Atlanta Center
Fri 07:48:20 PM 35.6244 -80.1886 203° Southwest 388 447 36,000  Level Atlanta Center
Fri 07:49:20 PM 35.5258 -80.2392 203° Southwest 393 452 36,000  Level Atlanta Center
Fri 07:50:20 PM 35.4272 -80.2869 202° Southwest 393 452 36,000  Level Atlanta Center
Fri 07:51:20 PM 35.3267 -80.3375 202° Southwest 393 452 36,000  Level Atlanta Center
Fri 07:52:20 PM 35.2258 -80.3903 203° Southwest 393 452 36,000  Level Atlanta Center
Fri 07:54:03 PM 35.0669 -80.4681 202° Southwest 390 449 36,000  Level Jacksonville Center
Fri 07:55:03 PM 34.9636 -80.5192 202° Southwest 390 449 36,000  Level Jacksonville Center
Fri 07:56:03 PM 34.8644 -80.5675 202° Southwest 390 449 36,000  Level Jacksonville Center
Fri 07:57:03 PM 34.7547 -80.6208 202° Southwest 390 449 36,000  Level Jacksonville Center
Fri 07:58:03 PM 34.6533 -80.6717 202° Southwest 390 449 36,000  Level Jacksonville Center
Fri 07:59:03 PM 34.5583 -80.7169 201° Southwest 399 459 36,000  Level Jacksonville Center
Fri 08:00:03 PM 34.4569 -80.7722 204° Southwest 399 459 36,000  Level Jacksonville Center
Fri 08:01:03 PM 34.3575 -80.8100 197° South 399 459 36,000  Level Jacksonville Center
Fri 08:02:03 PM 34.2519 -80.8678 204° Southwest 386 444 36,000  Level Jacksonville Center
Fri 08:03:03 PM 34.1486 -80.9178 202° Southwest 386 444 36,000  Level Jacksonville Center
Fri 08:04:03 PM 34.0469 -80.9678 202° Southwest 393 452 36,000  Level Jacksonville Center
Fri 08:05:03 PM 33.9436 -81.0175 202° Southwest 393 452 36,000  Level Jacksonville Center
Fri 08:06:03 PM 33.8419 -81.0622 200° South 393 452 36,000  Level Jacksonville Center
Fri 08:07:03 PM 33.7486 -81.1092 203° Southwest 393 452 36,000  Level Jacksonville Center
Fri 08:08:03 PM 33.6492 -81.1586 202° Southwest 393 452 36,000  Level Jacksonville Center
Fri 08:09:03 PM 33.5497 -81.2103 203° Southwest 393 452 36,000  Level Jacksonville Center
Fri 08:10:03 PM 33.4503 -81.2569 201° Southwest 393 452 36,000  Level Jacksonville Center
Fri 08:11:03 PM 33.3506 -81.3061 202° Southwest 393 452 36,000  Level Jacksonville Center
Fri 08:12:03 PM 33.2511 -81.3550 202° Southwest 388 447 36,000  Level Jacksonville Center
Fri 08:13:03 PM 33.1536 -81.4014 202° Southwest 388 447 36,000  Level Jacksonville Center
Fri 08:14:03 PM 33.0517 -81.4503 202° Southwest 393 452 36,000  Level Jacksonville Center
Fri 08:15:03 PM 32.9542 -81.5014 204° Southwest 388 447 36,000  Level Jacksonville Center
Fri 08:16:03 PM 32.8525 -81.5475 201° Southwest 394 453 36,000  Level Jacksonville Center
Fri 08:17:03 PM 32.7550 -81.5958 203° Southwest 394 453 36,000  Level Jacksonville Center
Fri 08:18:03 PM 32.6553 -81.6464 203° Southwest 389 448 36,000  Level Jacksonville Center
Fri 08:19:03 PM 32.5472 -81.6972 202° Southwest 389 448 36,000  Level Jacksonville Center
Fri 08:20:03 PM 32.4536 -81.7378 200° South 394 453 36,000  Level Jacksonville Center
Fri 08:21:03 PM 32.3347 -81.7664 191° South 394 453 36,000  Level Jacksonville Center
Fri 08:22:03 PM 32.2264 -81.7922 191° South 394 453 36,000  Level Jacksonville Center
Fri 08:23:03 PM 32.1264 -81.8131 190° South 394 453 36,000  Level Jacksonville Center
Fri 08:24:03 PM 32.0056 -81.8392 190° South 399 459 36,000 50 Level Jacksonville Center
Fri 08:25:03 PM 31.9075 -81.8622 191° South 404 465 36,100  Climbing Jacksonville Center
Fri 08:26:03 PM 31.7867 -81.8881 190° South 409 471 36,000 -50 Descending Jacksonville Center
Fri 08:27:03 PM 31.6764 -81.9111 190° South 409 471 36,000  Level Jacksonville Center
Fri 08:28:03 PM 31.5803 -81.9317 190° South 404 465 36,000 50 Level Jacksonville Center
Fri 08:29:03 PM 31.4575 -81.9597 191° South 409 471 36,100  Climbing Jacksonville Center
Fri 08:30:03 PM 31.3489 -81.9853 191° South 409 471 36,000 -50 Descending Jacksonville Center
Fri 08:31:03 PM 31.2428 -82.0081 190° South 409 471 36,000  Level Jacksonville Center
Fri 08:32:03 PM 31.1342 -82.0308 190° South 409 471 36,000  Level Jacksonville Center
Fri 08:33:03 PM 31.0258 -82.0536 190° South 409 471 36,000  Level Jacksonville Center
Fri 08:34:03 PM 30.9175 -82.0789 191° South 404 465 36,000  Level Jacksonville Center
Fri 08:35:03 PM 30.8069 -82.1017 190° South 404 465 36,000  Level Jacksonville Center
Fri 08:36:03 PM 30.7006 -82.1242 190° South 404 465 36,000  Level Jacksonville Center
Fri 08:37:03 PM 30.5922 -82.1469 190° South 404 465 36,000  Level Jacksonville Center
Fri 08:38:03 PM 30.4942 -82.1644 189° South 404 465 36,000  Level Jacksonville Center
Fri 08:39:03 PM 30.3753 -82.1894 190° South 399 459 36,000  Level Jacksonville Center
Fri 08:40:03 PM 30.2689 -82.2119 190° South 399 459 36,000  Level Jacksonville Center
Fri 08:41:03 PM 30.1564 -82.2344 190° South 405 466 36,000 -150 Level Jacksonville Center
Fri 08:42:03 PM 30.0500 -82.2567 190° South 405 466 35,700 -750 Descending Jacksonville Center
Fri 08:43:03 PM 29.9497 -82.2861 194° South 405 466 34,500 -1,650 Descending Jacksonville Center
Fri 08:44:03 PM 29.8414 -82.3083 190° South 405 466 32,400 -2,250 Descending Jacksonville Center
Fri 08:45:03 PM 29.7225 -82.3281 188° South 405 466 30,000 -2,350 Descending Jacksonville Center
Fri 08:46:03 PM 29.6139 -82.3503 190° South 405 466 27,700 -2,150 Descending Jacksonville Center
Fri 08:47:03 PM 29.5053 -82.3486 179° South 400 460 25,700 -1,950 Descending Jacksonville Center
Fri 08:48:03 PM 29.3947 -82.3347 174° South 400 460 23,800 -1,950 Descending Jacksonville Center
Fri 08:49:03 PM 29.2861 -82.3236 175° South 406 467 21,800 -2,000 Descending Jacksonville Center
Fri 08:50:03 PM 29.1817 -82.3122 175° South 399 459 19,800 -2,000 Descending Jacksonville Center
Fri 08:51:03 PM 29.0772 -82.2986 174° South 387 445 17,800 -1,800 Descending Jacksonville Center
Fri 08:52:03 PM 28.9708 -82.2850 174° South 387 445 16,200 -1,700 Descending Jacksonville Center
Fri 08:53:03 PM 28.8706 -82.2736 174° South 387 445 14,400 -1,100 Descending Jacksonville Center
Fri 08:55:03 PM 28.6833 -82.2500 174° South 307 353 12,900 -1,033 Descending Tampa TRACON
Fri 08:56:03 PM 28.6000 -82.2667 190° South 302 348 11,300 -1,400 Descending Tampa TRACON
Fri 08:57:03 PM 28.5667 -82.3333 240° Southwest 285 328 10,100 -619 Descending Tampa TRACON
Fri 08:58:09 PM 28.5500 -82.4333 259° West 280 322 10,000 -111 Descending Tampa TRACON
Fri 08:58:51 PM 28.5333 -82.5000 254° West 281 323 9,900 -1,105 Descending Tampa TRACON
Fri 09:00:03 PM 28.5000 -82.6000 249° West 278 320 7,900 -1,714 Descending Tampa TRACON
Fri 09:00:57 PM 28.4833 -82.6667 254° West 279 321 6,300 -1,000 Descending Tampa TRACON
Fri 09:01:57 PM 28.4333 -82.7333 230° Southwest 277 319 6,000 -842 Descending Tampa TRACON
Fri 09:02:51 PM 28.3667 -82.7667 204° Southwest 270 311 4,700 -1,000 Descending Tampa TRACON
Fri 09:03:57 PM 28.2833 -82.7667 180° South 260 299 4,000 -318 Descending Tampa TRACON
Fri 09:05:03 PM 28.2000 -82.7833 190° South 264 304 4,000  Level Tampa TRACON
Fri 09:05:57 PM 28.1333 -82.8000 192° South 263 303 4,000 -650 Level Tampa TRACON
Fri 09:07:03 PM 28.0667 -82.8000 180° South 260 299 2,700 -700 Descending Tampa TRACON
Fri 09:07:57 PM 28.0000 -82.8000 180° South 262 302 2,600 -53 Descending Tampa TRACON
Fri 09:08:57 PM 27.9333 -82.8000 180° South 209 241 2,600  Level Tampa TRACON
Fri 09:09:57 PM 27.8833 -82.8000 180° South 180 207 2,600 -250 Level Tampa TRACON
Fri 09:10:57 PM 27.8333 -82.8000 180° South 187 215 2,100 -500 Descending Tampa TRACON
Fri 09:11:57 PM 27.8167 -82.7500 111° Southeast 175 201 1,600 -378 Descending Tampa TRACON
Fri 09:13:04 PM 27.8333 -82.7000 69° East 149 171 1,300 -378 Descending Tampa TRACON
Fri 09:14:04 PM 27.8667 -82.6833 24° Northeast 131 151 800 -500 Descending Tampa TRACON
Fri 09:16:00 PM 27.9100 -82.6875 65° Northeast  Level Estimated
Fri 09:23:00 PM 27.9100 -82.6875 310° West  Level Estimated
Fri 09:24:00 PM 27.9100 -82.6875 74° East  Level Estimated

Login

Don't have an account? Register now (free) for customized features, flight alerts, and more!